ADDS TAF Data INFO
 
 

IDs: Format: Raw Decoded Include METARs

Data at: 2052 UTC 29 Jul 2014

Region: TOP
KATL 291951Z 2920/3024 31011G16KT P6SM SCT050
  FM300100 35007KT P6SM SKC
  FM301300 04006KT P6SM FEW030
  FM301800 35006KT P6SM SCT030 SCT250


KBOS 291848Z 2919/3024 23007KT P6SM SCT050 BKN070
  FM292100 13007KT P6SM SCT060
  FM292300 15006KT P6SM SCT060
  FM300200 21005KT P6SM SCT060
  FM301500 15004KT P6SM FEW250
  FM301800 14008KT P6SM SCT060


KBWI 291735Z 2918/3024 29007KT P6SM BKN045
  FM300100 VRB03KT P6SM SCT200


KCLE 291722Z 2918/3024 31005KT P6SM BKN050 OVC060
  FM300100 26008KT P6SM VCSH BKN045
  FM300700 22006KT P6SM SCT030 BKN120
  FM301600 28008KT P6SM VCSH BKN035 OVC100


KCLT 291728Z 2918/3018 32004KT P6SM BKN050
  FM292200 01004KT P6SM SCT050


KCVG 291730Z 2918/3024 31008KT P6SM BKN050
  FM300100 27004KT P6SM SCT050
  FM301500 27009KT P6SM BKN040


KDCA 291735Z 2918/3018 30012G20KT P6SM BKN045
  FM292100 31007KT P6SM SCT110
  FM300400 VRB03KT P6SM SCT250


KDEN 291953Z 2920/3024 13015G30KT P6SM VCTS BKN060CB BKN100
  TEMPO 2921/2924 VRB20G30KT 5SM TSRA BKN050CB
  FM300000 10010KT 5SM TSRA BKN040CB OVC060
  TEMPO 3000/3004 3SM +SHRA OVC030
  FM300400 06010KT 5SM -SHRA BKN030 OVC050
  TEMPO 3004/3007 3SM -TSRA OVC020CB
  FM300700 06007KT P6SM VCTS SCT025CB OVC040
  TEMPO 3007/3011 5SM SHRA OVC025
  FM301100 03007KT P6SM SCT020 BKN050
  TEMPO 3011/3015 -SHRA BKN020


KDFW 291720Z 2918/3024 10005KT P6SM BKN100
  FM292200 12006KT P6SM SCT100 BKN250
  FM301500 16010KT P6SM VCSH BKN100


KDTW 292010Z 2920/3024 24012KT P6SM SCT045 BKN070
  TEMPO 2921/2924 6SM -SHRA BKN040 OVC060
  FM300100 28005KT P6SM SCT060 SCT080 BKN200
  FM301500 26008KT P6SM BKN050 BKN150


KEWR 291920Z 2919/3024 29012G17KT P6SM SCT050
  FM292300 26008KT P6SM SCT050
  FM300400 VRB05KT P6SM SCT050
  FM301600 23008KT P6SM BKN050


KFLL 291728Z 2918/3018 24007KT P6SM VCTS SCT040CB BKN250
  FM300100 22005KT P6SM BKN250


KIAD 291810Z 2918/3024 30015G20KT P6SM BKN045
  FM292100 29009KT P6SM SCT045
  FM300000 32005KT P6SM SCT150
  FM301800 25005KT P6SM SCT250


KIAH 291905Z 2919/3024 VRB04KT P6SM VCTS SCT035 SCT050CB BKN250
  TEMPO 2919/2921 36015G20KT TSRA BKN035CB
  FM300100 VRB03KT P6SM SCT040
  FM301500 17007KT P6SM SCT035
  FM301800 15006KT P6SM VCTS SCT050CB


KJFK 292019Z 2920/3024 27011KT P6SM BKN070 BKN250
  FM300100 26007KT P6SM SCT060
  FM300500 VRB04KT P6SM SCT050
  FM301600 18010KT P6SM BKN050
  FM302000 18013KT P6SM BKN050


KLAS 292012Z 2920/3018 21008G16KT P6SM SCT100 SCT150
  FM300100 25007KT P6SM SCT100 SCT150
  FM300600 30007KT P6SM FEW110 SCT250


KLAX 291735Z 2918/3024 25006KT P6SM SCT150 SCT200
  FM292000 25012KT P6SM SCT150 SCT200
  FM300300 25006KT P6SM SCT150 SCT200
  FM301000 VRB03KT 6SM BR SCT007 BKN150
  FM302000 25010KT P6SM SCT150 BKN200


KLGA 292024Z 2920/3018 32011KT P6SM BKN070 BKN250
  FM292300 29008KT P6SM SCT060
  FM300500 VRB04KT P6SM SCT050
  FM301700 23010KT P6SM BKN050


KMCO 292007Z 2920/3018 28011KT P6SM VCTS SCT035CB SCT080 BKN250
  TEMPO 2921/2922 27014G24KT 3SM TSRA BKN025CB OVC080
  FM300100 24006KT P6SM FEW040 SCT250
  FM301400 32004KT P6SM SCT025


KMDW 291956Z 2920/3018 32010G15KT P6SM VCSH BKN050
  FM292030 06009KT P6SM VCSH BKN050
  FM300200 29005KT P6SM FEW050 SCT150
  FM301400 30007KT P6SM SCT150


KMEM 291720Z 2918/3018 04009KT P6SM SCT050
  FM300000 04003KT P6SM SCT250
  FM301600 19006KT P6SM BKN250


KMIA 291728Z 2918/3018 25006KT P6SM VCTS SCT030CB BKN250
  FM300000 23004KT P6SM SCT250


KMSP 291738Z 2918/3024 31011KT P6SM SCT050
  FM300200 32004KT P6SM SKC
  FM301500 32008KT P6SM SCT050


KORD 291956Z 2920/3024 32010G15KT P6SM VCSH BKN050
  FM300200 29005KT P6SM FEW050 SCT150
  FM301400 30007KT P6SM SCT150
  FM302000 30009KT P6SM VCSH BKN045


KPDX 291720Z 2918/3018 27004KT P6SM SKC
  FM292200 31010KT P6SM SKC
  FM300600 32005KT P6SM SKC
  FM301000 32003KT P6SM FEW010
  FM301400 32004KT P6SM BKN008


KPHL 291736Z 2918/3024 32009KT P6SM SCT050 BKN070
  FM292200 28006KT P6SM SCT050
  FM301400 26008KT P6SM SCT050


KPHX 291725Z 2918/3018 VRB05KT P6SM FEW250
  FM292000 29010KT P6SM FEW250
  FM301000 14006KT P6SM FEW250


KPIT 291737Z 2918/3024 30007KT P6SM SCT030 OVC050
  FM300300 22003KT P6SM SCT050
  FM301600 25007KT P6SM VCSH BKN035


KSAN 291731Z 2918/3024 VRB04KT P6SM FEW010 SCT250
  FM291900 29009KT P6SM SCT200
  FM300200 VRB04KT P6SM SCT012 SCT200
  FM300900 VRB04KT P6SM BKN010
  FM301500 VRB04KT P6SM SCT015
  FM302000 26009KT P6SM FEW015


KSEA 291739Z 2918/3024 29004KT P6SM SKC
  FM292000 32008KT P6SM SKC
  FM300400 03006KT P6SM SKC
  FM301300 VRB03KT P6SM FEW002
  FM301700 31006KT P6SM SKC


KSFO 291747Z 2918/3024 32007KT P6SM FEW008
  FM291900 29016KT P6SM SCT180
  FM300400 29010KT P6SM FEW010
  FM301000 29005KT P6SM SCT010
  FM301600 31009KT P6SM SCT150


KSLC 292008Z 2920/3024 32008KT P6SM -TSRA FEW045CB BKN070
  FM292130 32008KT P6SM -SHRA SCT040 BKN070
  FM300000 14006KT P6SM VCSH SCT050 BKN090
  FM301600 35007KT P6SM VCSH SCT050 BKN070


KSTL 291720Z 2918/3024 33008KT P6SM BKN050
  FM300100 VRB04KT P6SM SKC


KTPA 291740Z 2918/3018 27011KT P6SM VCTS SCT030CB BKN100
  TEMPO 2918/2921 VRB15G25KT 4SM TSRA BKN025CB
  FM300200 VRB06KT P6SM SCT025 SCT100 BKN250
  FM301300 VRB05KT P6SM FEW020 SCT035


Page loaded:  20:52 UTC  |   01:52 PM Pacific  |   02:52 PM Mountain  |   03:52 PM Central  |   04:52 PM Eastern

 

ADVISORIES

FORECASTS

FORECASTS

OBSERVATIONS

USER TOOLS

ABOUT US